Marmeleiro, Brazil
Current Conditions -  °F | °C
As of 1:00 AM on Saturday 01 Nov 2014 (Local Time) from SBCH Reporting Station
Scattered Clouds Scattered Clouds  
Wind Chill: 24°   Ceiling: Unl
Heat Index: 24°   Visibility: 6mi
Dew Point: 20°   Wind: 8mph
Humidity: 78%   Direction: 150°SSE
Pressure: 29.97"   Gusts: NA
Location:  26.15°S, 53.03°W
Report Text: SBCH 010300Z 15007KT 9999 FEW046TCU SCT090 24/20 Q1015
Loading
Personal Weather Stations






























Interactive Weather Map
Tropical Storm Tracking
New forecast layout! Learn more

10-Day Weather Forecast

Advertisements
Track Severe Weather on mobile